sensor_id;sensor_type;location;lat;lon;timestamp;pressure;altitude;pressure_sealevel;temperature;humidity
69214;BME280;56325;47.030;18.518;2023-03-26T00:00:04;100025.38;;;8.46;72.22
69214;BME280;56325;47.030;18.518;2023-03-26T00:02:44;100026.09;;;8.38;72.48
69214;BME280;56325;47.030;18.518;2023-03-26T00:05:20;100028.97;;;8.34;72.52
69214;BME280;56325;47.030;18.518;2023-03-26T00:07:54;100023.72;;;8.27;72.72
69214;BME280;56325;47.030;18.518;2023-03-26T00:10:28;100030.72;;;8.28;72.19
69214;BME280;56325;47.030;18.518;2023-03-26T00:13:03;100029.06;;;8.31;72.21
69214;BME280;56325;47.030;18.518;2023-03-26T00:15:38;100031.00;;;8.21;72.58
69214;BME280;56325;47.030;18.518;2023-03-26T00:18:13;100027.94;;;8.19;72.82
69214;BME280;56325;47.030;18.518;2023-03-26T00:20:49;100024.69;;;8.11;73.08
69214;BME280;56325;47.030;18.518;2023-03-26T00:23:24;100028.97;;;8.12;72.82
69214;BME280;56325;47.030;18.518;2023-03-26T00:25:59;100015.44;;;8.18;73.03
69214;BME280;56325;47.030;18.518;2023-03-26T00:28:35;100018.50;;;8.20;72.88
69214;BME280;56325;47.030;18.518;2023-03-26T00:31:12;100016.66;;;8.17;73.36
69214;BME280;56325;47.030;18.518;2023-03-26T00:33:47;100014.81;;;8.14;73.48
69214;BME280;56325;47.030;18.518;2023-03-26T00:36:29;100020.88;;;8.09;73.76
69214;BME280;56325;47.030;18.518;2023-03-26T00:39:04;100012.91;;;8.02;73.51
69214;BME280;56325;47.030;18.518;2023-03-26T00:41:38;100015.91;;;7.95;73.69
69214;BME280;56325;47.030;18.518;2023-03-26T00:44:15;100025.44;;;7.90;73.86
69214;BME280;56325;47.030;18.518;2023-03-26T00:46:49;100031.13;;;7.74;74.43
69214;BME280;56325;47.030;18.518;2023-03-26T00:49:26;100027.34;;;7.80;74.32
69214;BME280;56325;47.030;18.518;2023-03-26T00:52:04;100025.25;;;7.84;73.82
69214;BME280;56325;47.030;18.518;2023-03-26T00:54:41;100032.84;;;7.80;74.00
69214;BME280;56325;47.030;18.518;2023-03-26T00:57:16;100030.94;;;7.90;73.37
69214;BME280;56325;47.030;18.518;2023-03-26T01:00:10;100035.12;;;7.82;73.37
69214;BME280;56325;47.030;18.518;2023-03-26T01:02:46;100026.47;;;7.83;73.10
69214;BME280;56325;47.030;18.518;2023-03-26T01:05:43;100030.47;;;7.92;72.60
69214;BME280;56325;47.030;18.518;2023-03-26T01:08:24;100023.87;;;8.02;72.18
69214;BME280;56325;47.030;18.518;2023-03-26T01:11:04;100027.56;;;8.08;71.82
69214;BME280;56325;47.030;18.518;2023-03-26T01:13:42;100022.41;;;8.10;71.21
69214;BME280;56325;47.030;18.518;2023-03-26T01:16:22;100019.09;;;8.15;70.84
69214;BME280;56325;47.030;18.518;2023-03-26T01:18:58;100017.94;;;8.25;70.69
69214;BME280;56325;47.030;18.518;2023-03-26T01:21:32;100025.81;;;8.23;71.19
69214;BME280;56325;47.030;18.518;2023-03-26T01:24:09;100012.44;;;8.25;71.07
69214;BME280;56325;47.030;18.518;2023-03-26T01:27:19;100020.22;;;8.27;71.48
69214;BME280;56325;47.030;18.518;2023-03-26T01:30:03;100014.66;;;8.61;69.75
69214;BME280;56325;47.030;18.518;2023-03-26T01:32:50;100018.97;;;8.40;69.93
69214;BME280;56325;47.030;18.518;2023-03-26T01:35:38;100018.69;;;8.47;69.94
69214;BME280;56325;47.030;18.518;2023-03-26T01:38:22;100020.47;;;8.41;69.71
69214;BME280;56325;47.030;18.518;2023-03-26T01:41:05;100014.81;;;8.36;70.02
69214;BME280;56325;47.030;18.518;2023-03-26T01:43:45;100010.28;;;8.20;70.43
69214;BME280;56325;47.030;18.518;2023-03-26T01:46:23;100013.97;;;8.26;70.34
69214;BME280;56325;47.030;18.518;2023-03-26T01:48:58;100019.59;;;8.22;70.79
69214;BME280;56325;47.030;18.518;2023-03-26T01:51:35;100018.69;;;8.26;70.17
69214;BME280;56325;47.030;18.518;2023-03-26T01:54:13;100023.50;;;8.34;69.96
69214;BME280;56325;47.030;18.518;2023-03-26T01:56:57;100026.72;;;8.20;69.63
69214;BME280;56325;47.030;18.518;2023-03-26T01:59:47;100024.19;;;8.04;70.12
69214;BME280;56325;47.030;18.518;2023-03-26T02:02:30;100024.31;;;7.78;70.68
69214;BME280;56325;47.030;18.518;2023-03-26T02:05:16;100013.09;;;7.85;70.50
69214;BME280;56325;47.030;18.518;2023-03-26T02:07:59;100024.31;;;7.78;70.80
69214;BME280;56325;47.030;18.518;2023-03-26T02:10:40;100016.72;;;7.82;71.17
69214;BME280;56325;47.030;18.518;2023-03-26T02:13:18;100022.47;;;7.97;70.83
69214;BME280;56325;47.030;18.518;2023-03-26T02:15:58;100025.97;;;7.98;70.75
69214;BME280;56325;47.030;18.518;2023-03-26T02:18:33;100025.84;;;8.01;70.64
69214;BME280;56325;47.030;18.518;2023-03-26T02:21:12;100014.44;;;8.03;71.14
69214;BME280;56325;47.030;18.518;2023-03-26T02:23:49;100008.84;;;7.84;71.79
69214;BME280;56325;47.030;18.518;2023-03-26T02:26:32;100014.00;;;7.82;71.78
69214;BME280;56325;47.030;18.518;2023-03-26T02:29:10;100011.19;;;7.95;71.27
69214;BME280;56325;47.030;18.518;2023-03-26T02:31:45;100011.97;;;7.96;71.14
69214;BME280;56325;47.030;18.518;2023-03-26T02:34:20;100003.75;;;7.96;70.88
69214;BME280;56325;47.030;18.518;2023-03-26T02:36:55;100000.63;;;8.06;71.36
69214;BME280;56325;47.030;18.518;2023-03-26T02:39:30;100011.56;;;8.06;71.14
69214;BME280;56325;47.030;18.518;2023-03-26T02:42:04;99999.97;;;8.02;71.33
69214;BME280;56325;47.030;18.518;2023-03-26T02:44:43;100002.28;;;8.04;71.43
69214;BME280;56325;47.030;18.518;2023-03-26T02:47:20;100000.50;;;7.88;71.76
69214;BME280;56325;47.030;18.518;2023-03-26T02:49:59;100005.22;;;7.87;72.33
69214;BME280;56325;47.030;18.518;2023-03-26T02:52:37;100000.72;;;7.72;73.23
69214;BME280;56325;47.030;18.518;2023-03-26T02:55:12;100001.59;;;7.69;73.02
69214;BME280;56325;47.030;18.518;2023-03-26T02:57:46;99996.25;;;7.65;73.07
69214;BME280;56325;47.030;18.518;2023-03-26T03:00:24;99995.03;;;7.66;73.55
69214;BME280;56325;47.030;18.518;2023-03-26T03:03:01;99983.00;;;7.64;73.86
69214;BME280;56325;47.030;18.518;2023-03-26T03:05:43;99988.69;;;7.69;74.43
69214;BME280;56325;47.030;18.518;2023-03-26T03:08:19;99988.03;;;7.87;74.41
69214;BME280;56325;47.030;18.518;2023-03-26T03:10:57;99982.50;;;7.78;74.90
69214;BME280;56325;47.030;18.518;2023-03-26T03:13:34;99992.53;;;8.03;74.24
69214;BME280;56325;47.030;18.518;2023-03-26T03:16:10;99990.31;;;7.88;75.01
69214;BME280;56325;47.030;18.518;2023-03-26T03:18:45;99983.00;;;7.85;75.31
69214;BME280;56325;47.030;18.518;2023-03-26T03:21:27;99990.06;;;7.96;74.89
69214;BME280;56325;47.030;18.518;2023-03-26T03:24:03;99991.47;;;7.78;75.63
69214;BME280;56325;47.030;18.518;2023-03-26T03:26:38;99991.66;;;7.84;75.39
69214;BME280;56325;47.030;18.518;2023-03-26T03:29:14;99995.47;;;7.65;76.18
69214;BME280;56325;47.030;18.518;2023-03-26T03:31:51;99992.38;;;7.75;75.88
69214;BME280;56325;47.030;18.518;2023-03-26T03:34:26;99998.16;;;7.77;75.60
69214;BME280;56325;47.030;18.518;2023-03-26T03:37:00;99993.25;;;7.72;75.46
69214;BME280;56325;47.030;18.518;2023-03-26T03:39:36;99989.56;;;7.66;75.37
69214;BME280;56325;47.030;18.518;2023-03-26T03:42:11;99994.50;;;7.80;75.28
69214;BME280;56325;47.030;18.518;2023-03-26T03:44:46;99999.38;;;7.76;77.27
69214;BME280;56325;47.030;18.518;2023-03-26T03:47:24;100000.59;;;7.75;77.66
69214;BME280;56325;47.030;18.518;2023-03-26T03:49:58;99998.78;;;7.81;78.76
69214;BME280;56325;47.030;18.518;2023-03-26T03:52:38;100003.63;;;7.77;78.44
69214;BME280;56325;47.030;18.518;2023-03-26T03:55:12;100010.69;;;7.87;77.97
69214;BME280;56325;47.030;18.518;2023-03-26T03:57:48;100013.41;;;7.87;78.41
69214;BME280;56325;47.030;18.518;2023-03-26T04:00:24;100022.91;;;7.96;78.33
69214;BME280;56325;47.030;18.518;2023-03-26T04:03:02;100013.53;;;8.06;78.57
69214;BME280;56325;47.030;18.518;2023-03-26T04:05:38;100005.28;;;7.97;80.02
69214;BME280;56325;47.030;18.518;2023-03-26T04:08:13;100001.91;;;7.93;80.85
69214;BME280;56325;47.030;18.518;2023-03-26T04:10:48;100006.53;;;7.83;81.25
69214;BME280;56325;47.030;18.518;2023-03-26T04:13:26;100002.22;;;7.95;81.00
69214;BME280;56325;47.030;18.518;2023-03-26T04:16:02;100004.06;;;7.98;80.86
69214;BME280;56325;47.030;18.518;2023-03-26T04:18:38;100000.69;;;7.94;81.37
69214;BME280;56325;47.030;18.518;2023-03-26T04:21:13;100000.37;;;7.92;81.77
69214;BME280;56325;47.030;18.518;2023-03-26T04:23:48;99998.31;;;8.05;80.96
69214;BME280;56325;47.030;18.518;2023-03-26T04:26:23;100001.81;;;8.27;80.30
69214;BME280;56325;47.030;18.518;2023-03-26T04:29:01;99996.84;;;8.13;80.57
69214;BME280;56325;47.030;18.518;2023-03-26T04:31:37;99998.31;;;8.05;81.01
69214;BME280;56325;47.030;18.518;2023-03-26T04:34:19;100001.44;;;8.16;80.29
69214;BME280;56325;47.030;18.518;2023-03-26T04:36:56;100009.78;;;8.34;79.24
69214;BME280;56325;47.030;18.518;2023-03-26T04:39:32;100010.16;;;8.23;78.62
69214;BME280;56325;47.030;18.518;2023-03-26T04:42:10;100011.69;;;8.03;78.77
69214;BME280;56325;47.030;18.518;2023-03-26T04:44:47;100013.41;;;7.87;80.06
69214;BME280;56325;47.030;18.518;2023-03-26T04:47:23;100009.22;;;7.96;79.40
69214;BME280;56325;47.030;18.518;2023-03-26T04:49:59;100007.63;;;7.85;80.08
69214;BME280;56325;47.030;18.518;2023-03-26T04:52:34;100015.03;;;7.76;80.30
69214;BME280;56325;47.030;18.518;2023-03-26T04:55:18;100009.25;;;7.74;80.79
69214;BME280;56325;47.030;18.518;2023-03-26T04:57:56;100009.69;;;7.72;80.17
69214;BME280;56325;47.030;18.518;2023-03-26T05:00:36;100006.84;;;7.85;79.60
69214;BME280;56325;47.030;18.518;2023-03-26T05:03:11;100013.75;;;7.89;79.09
69214;BME280;56325;47.030;18.518;2023-03-26T05:05:47;100020.63;;;7.72;79.50
69214;BME280;56325;47.030;18.518;2023-03-26T05:08:21;100024.06;;;7.85;79.30
69214;BME280;56325;47.030;18.518;2023-03-26T05:10:56;100018.56;;;7.85;79.92
69214;BME280;56325;47.030;18.518;2023-03-26T05:13:32;100012.00;;;7.83;80.06
69214;BME280;56325;47.030;18.518;2023-03-26T05:16:09;100001.44;;;7.94;80.13
69214;BME280;56325;47.030;18.518;2023-03-26T05:18:44;100003.81;;;8.05;79.71
69214;BME280;56325;47.030;18.518;2023-03-26T05:21:20;99996.16;;;8.00;80.62
69214;BME280;56325;47.030;18.518;2023-03-26T05:23:55;100003.22;;;8.10;80.14
69214;BME280;56325;47.030;18.518;2023-03-26T05:26:30;99998.19;;;7.86;80.45
69214;BME280;56325;47.030;18.518;2023-03-26T05:29:04;99995.53;;;7.96;80.58
69214;BME280;56325;47.030;18.518;2023-03-26T05:31:39;99998.84;;;8.12;79.33
69214;BME280;56325;47.030;18.518;2023-03-26T05:34:13;99998.56;;;8.19;77.56
69214;BME280;56325;47.030;18.518;2023-03-26T05:36:49;100005.16;;;8.00;76.12
69214;BME280;56325;47.030;18.518;2023-03-26T05:39:25;100004.62;;;9.71;95.91
69214;BME280;56325;47.030;18.518;2023-03-26T05:42:04;100014.81;;;9.25;79.39
69214;BME280;56325;47.030;18.518;2023-03-26T05:44:40;100012.00;;;8.48;77.29
69214;BME280;56325;47.030;18.518;2023-03-26T05:47:15;100024.03;;;8.29;77.99
69214;BME280;56325;47.030;18.518;2023-03-26T05:49:50;100023.59;;;8.09;79.01
69214;BME280;56325;47.030;18.518;2023-03-26T05:52:27;100019.59;;;8.01;79.76
69214;BME280;56325;47.030;18.518;2023-03-26T05:55:12;100015.19;;;8.25;79.60
69214;BME280;56325;47.030;18.518;2023-03-26T05:57:50;100017.63;;;8.23;79.53
69214;BME280;56325;47.030;18.518;2023-03-26T06:02:55;100018.12;;;8.31;81.66
69214;BME280;56325;47.030;18.518;2023-03-26T08:06:33;99987.47;;;12.13;70.73
69214;BME280;56325;47.030;18.518;2023-03-26T08:09:16;99991.94;;;11.96;70.93
69214;BME280;56325;47.030;18.518;2023-03-26T08:12:01;99988.09;;;12.37;74.06
69214;BME280;56325;47.030;18.518;2023-03-26T08:14:46;99982.28;;;12.50;71.72
69214;BME280;56325;47.030;18.518;2023-03-26T08:17:30;99984.19;;;12.44;70.84
69214;BME280;56325;47.030;18.518;2023-03-26T08:20:20;99981.97;;;12.63;71.29
69214;BME280;56325;47.030;18.518;2023-03-26T08:23:04;99985.69;;;12.60;70.18
69214;BME280;56325;47.030;18.518;2023-03-26T08:25:49;99979.59;;;12.70;70.60
69214;BME280;56325;47.030;18.518;2023-03-26T08:28:40;99974.03;;;12.85;68.91
69214;BME280;56325;47.030;18.518;2023-03-26T08:31:23;99974.59;;;12.89;68.46
69214;BME280;56325;47.030;18.518;2023-03-26T08:34:00;99969.03;;;13.24;71.09
69214;BME280;56325;47.030;18.518;2023-03-26T08:36:35;99964.53;;;13.27;67.75
69214;BME280;56325;47.030;18.518;2023-03-26T08:39:11;99959.88;;;13.59;68.41
69214;BME280;56325;47.030;18.518;2023-03-26T08:42:12;99945.75;;;13.77;66.61
69214;BME280;56325;47.030;18.518;2023-03-26T08:51:55;99944.25;;;14.07;60.72
69214;BME280;56325;47.030;18.518;2023-03-26T08:54:47;99924.81;;;14.28;64.77
69214;BME280;56325;47.030;18.518;2023-03-26T08:57:49;99932.41;;;14.33;63.52
69214;BME280;56325;47.030;18.518;2023-03-26T09:07:04;99923.72;;;14.46;58.94
69214;BME280;56325;47.030;18.518;2023-03-26T09:16:47;99929.38;;;14.73;60.58
69214;BME280;56325;47.030;18.518;2023-03-26T09:19:57;99924.13;;;14.75;60.12
69214;BME280;56325;47.030;18.518;2023-03-26T09:22:52;99920.13;;;14.82;59.46
69214;BME280;56325;47.030;18.518;2023-03-26T09:26:00;99913.88;;;14.87;56.93
69214;BME280;56325;47.030;18.518;2023-03-26T09:35:13;99896.88;;;15.17;55.93
69214;BME280;56325;47.030;18.518;2023-03-26T09:37:55;99891.53;;;15.02;56.50
69214;BME280;56325;47.030;18.518;2023-03-26T09:40:36;99888.78;;;15.07;55.87
69214;BME280;56325;47.030;18.518;2023-03-26T09:43:39;99888.25;;;15.03;55.92
69214;BME280;56325;47.030;18.518;2023-03-26T09:46:26;99880.72;;;15.09;56.42
69214;BME280;56325;47.030;18.518;2023-03-26T09:49:14;99873.22;;;15.27;53.55
69214;BME280;56325;47.030;18.518;2023-03-26T09:52:19;99871.25;;;15.44;56.20
69214;BME280;56325;47.030;18.518;2023-03-26T09:55:15;99862.72;;;15.70;55.79
69214;BME280;56325;47.030;18.518;2023-03-26T09:58:03;99861.72;;;15.84;56.26
69214;BME280;56325;47.030;18.518;2023-03-26T10:00:48;99851.13;;;16.05;58.35
69214;BME280;56325;47.030;18.518;2023-03-26T10:03:34;99853.16;;;15.77;51.37
69214;BME280;56325;47.030;18.518;2023-03-26T10:06:24;99852.41;;;15.93;54.29
69214;BME280;56325;47.030;18.518;2023-03-26T10:09:16;99841.78;;;16.19;51.91
69214;BME280;56325;47.030;18.518;2023-03-26T10:12:12;99836.22;;;16.25;51.74
69214;BME280;56325;47.030;18.518;2023-03-26T10:14:58;99830.19;;;16.26;50.80
69214;BME280;56325;47.030;18.518;2023-03-26T10:17:47;99819.06;;;16.32;51.27
69214;BME280;56325;47.030;18.518;2023-03-26T10:20:31;99816.28;;;16.37;50.91
69214;BME280;56325;47.030;18.518;2023-03-26T10:23:20;99804.91;;;16.41;49.64
69214;BME280;56325;47.030;18.518;2023-03-26T10:26:04;99804.69;;;16.33;49.67
69214;BME280;56325;47.030;18.518;2023-03-26T10:29:02;99800.38;;;16.38;46.79
69214;BME280;56325;47.030;18.518;2023-03-26T10:31:45;99793.84;;;16.30;46.34
69214;BME280;56325;47.030;18.518;2023-03-26T10:34:47;99794.78;;;16.49;50.87
69214;BME280;56325;47.030;18.518;2023-03-26T10:37:33;99789.16;;;16.71;49.59
69214;BME280;56325;47.030;18.518;2023-03-26T10:40:18;99784.09;;;16.76;48.01
69214;BME280;56325;47.030;18.518;2023-03-26T10:46:24;99770.25;;;16.64;46.38
69214;BME280;56325;47.030;18.518;2023-03-26T10:49:40;99770.13;;;16.92;47.82
69214;BME280;56325;47.030;18.518;2023-03-26T10:52:24;99764.50;;;17.03;47.48
69214;BME280;56325;47.030;18.518;2023-03-26T10:55:09;99757.09;;;17.17;46.23
69214;BME280;56325;47.030;18.518;2023-03-26T10:57:48;99751.16;;;17.32;47.64
69214;BME280;56325;47.030;18.518;2023-03-26T11:00:27;99741.56;;;17.33;46.24
69214;BME280;56325;47.030;18.518;2023-03-26T11:03:15;99745.69;;;17.21;45.91
69214;BME280;56325;47.030;18.518;2023-03-26T11:05:58;99750.72;;;17.22;45.69
69214;BME280;56325;47.030;18.518;2023-03-26T11:08:39;99737.47;;;17.34;46.00
69214;BME280;56325;47.030;18.518;2023-03-26T11:11:23;99732.44;;;17.62;45.75
69214;BME280;56325;47.030;18.518;2023-03-26T11:14:04;99730.78;;;17.48;43.29
69214;BME280;56325;47.030;18.518;2023-03-26T11:16:50;99713.97;;;17.65;46.74
69214;BME280;56325;47.030;18.518;2023-03-26T11:19:32;99710.69;;;17.91;44.93
69214;BME280;56325;47.030;18.518;2023-03-26T11:22:19;99698.41;;;18.05;46.07
69214;BME280;56325;47.030;18.518;2023-03-26T11:25:08;99694.22;;;18.17;43.55
69214;BME280;56325;47.030;18.518;2023-03-26T11:28:00;99688.19;;;18.13;42.33
69214;BME280;56325;47.030;18.518;2023-03-26T11:30:43;99681.06;;;18.18;40.59
69214;BME280;56325;47.030;18.518;2023-03-26T11:33:22;99682.63;;;18.13;39.81
69214;BME280;56325;47.030;18.518;2023-03-26T11:36:07;99672.00;;;18.30;41.98
69214;BME280;56325;47.030;18.518;2023-03-26T11:38:45;99672.38;;;18.40;41.30
69214;BME280;56325;47.030;18.518;2023-03-26T11:41:23;99662.00;;;18.41;38.84
69214;BME280;56325;47.030;18.518;2023-03-26T11:44:04;99672.69;;;18.37;38.35
69214;BME280;56325;47.030;18.518;2023-03-26T11:46:43;99658.31;;;18.32;35.76
69214;BME280;56325;47.030;18.518;2023-03-26T11:49:21;99648.34;;;18.61;38.24
69214;BME280;56325;47.030;18.518;2023-03-26T11:51:55;99641.53;;;18.76;37.15
69214;BME280;56325;47.030;18.518;2023-03-26T11:54:31;99647.28;;;18.64;39.40
69214;BME280;56325;47.030;18.518;2023-03-26T11:57:12;99638.69;;;18.62;37.74
69214;BME280;56325;47.030;18.518;2023-03-26T11:59:52;99623.78;;;18.60;36.19
69214;BME280;56325;47.030;18.518;2023-03-26T12:02:30;99613.37;;;18.79;37.81
69214;BME280;56325;47.030;18.518;2023-03-26T12:05:17;99608.50;;;18.98;36.00
69214;BME280;56325;47.030;18.518;2023-03-26T12:07:54;99606.16;;;19.16;35.56
69214;BME280;56325;47.030;18.518;2023-03-26T12:10:32;99592.00;;;19.14;34.76
69214;BME280;56325;47.030;18.518;2023-03-26T12:13:25;99593.47;;;18.88;35.03
69214;BME280;56325;47.030;18.518;2023-03-26T12:16:07;99594.44;;;18.91;35.47
69214;BME280;56325;47.030;18.518;2023-03-26T12:18:43;99591.16;;;18.23;35.54
69214;BME280;56325;47.030;18.518;2023-03-26T12:21:19;99577.13;;;18.47;37.44
69214;BME280;56325;47.030;18.518;2023-03-26T12:23:56;99571.66;;;19.19;38.10
69214;BME280;56325;47.030;18.518;2023-03-26T12:26:36;99567.59;;;19.46;36.02
69214;BME280;56325;47.030;18.518;2023-03-26T12:29:14;99567.13;;;19.16;35.63
69214;BME280;56325;47.030;18.518;2023-03-26T12:31:55;99560.72;;;19.34;35.81
69214;BME280;56325;47.030;18.518;2023-03-26T12:34:29;99554.41;;;19.33;36.64
69214;BME280;56325;47.030;18.518;2023-03-26T12:37:31;99541.19;;;19.47;35.30
69214;BME280;56325;47.030;18.518;2023-03-26T12:40:24;99537.66;;;19.73;35.14
69214;BME280;56325;47.030;18.518;2023-03-26T12:43:00;99528.41;;;19.91;34.89
69214;BME280;56325;47.030;18.518;2023-03-26T12:45:57;99530.69;;;19.67;35.51
69214;BME280;56325;47.030;18.518;2023-03-26T12:48:53;99524.91;;;19.12;33.87
69214;BME280;56325;47.030;18.518;2023-03-26T12:51:38;99519.50;;;18.61;34.89
69214;BME280;56325;47.030;18.518;2023-03-26T12:54:29;99506.25;;;19.33;34.95
69214;BME280;56325;47.030;18.518;2023-03-26T12:57:18;99507.41;;;19.51;30.35
69214;BME280;56325;47.030;18.518;2023-03-26T13:00:04;99503.66;;;19.75;32.77
69214;BME280;56325;47.030;18.518;2023-03-26T13:03:07;99499.34;;;19.87;31.65
69214;BME280;56325;47.030;18.518;2023-03-26T13:05:56;99498.28;;;19.77;30.17
69214;BME280;56325;47.030;18.518;2023-03-26T13:08:44;99485.25;;;19.92;29.21
69214;BME280;56325;47.030;18.518;2023-03-26T13:11:31;99469.66;;;19.63;30.82
69214;BME280;56325;47.030;18.518;2023-03-26T13:14:42;99471.72;;;19.49;30.11
69214;BME280;56325;47.030;18.518;2023-03-26T13:17:26;99473.44;;;19.26;31.05
69214;BME280;56325;47.030;18.518;2023-03-26T13:20:11;99462.41;;;19.20;30.89
69214;BME280;56325;47.030;18.518;2023-03-26T13:22:52;99464.44;;;19.20;30.28
69214;BME280;56325;47.030;18.518;2023-03-26T13:25:37;99465.56;;;19.04;32.89
69214;BME280;56325;47.030;18.518;2023-03-26T13:28:26;99461.25;;;18.89;34.12
69214;BME280;56325;47.030;18.518;2023-03-26T13:31:09;99450.63;;;18.61;34.27
69214;BME280;56325;47.030;18.518;2023-03-26T13:33:54;99448.09;;;19.03;34.67
69214;BME280;56325;47.030;18.518;2023-03-26T13:36:39;99434.25;;;18.97;33.81
69214;BME280;56325;47.030;18.518;2023-03-26T13:39:26;99430.63;;;19.03;33.16
69214;BME280;56325;47.030;18.518;2023-03-26T13:42:16;99429.66;;;19.00;31.63
69214;BME280;56325;47.030;18.518;2023-03-26T13:45:02;99428.03;;;19.05;33.25
69214;BME280;56325;47.030;18.518;2023-03-26T13:47:43;99413.69;;;18.87;31.47
69214;BME280;56325;47.030;18.518;2023-03-26T13:50:23;99423.53;;;18.62;31.37
69214;BME280;56325;47.030;18.518;2023-03-26T13:53:04;99425.09;;;18.57;31.63
69214;BME280;56325;47.030;18.518;2023-03-26T13:55:42;99415.19;;;18.62;31.93
69214;BME280;56325;47.030;18.518;2023-03-26T13:58:24;99413.63;;;18.34;32.45
69214;BME280;56325;47.030;18.518;2023-03-26T14:03:11;99399.91;;;18.37;31.53
69214;BME280;56325;47.030;18.518;2023-03-26T14:05:53;99399.91;;;18.37;31.53
69214;BME280;56325;47.030;18.518;2023-03-26T14:08:32;99397.38;;;17.93;34.34
69214;BME280;56325;47.030;18.518;2023-03-26T14:11:13;99389.88;;;17.88;34.89
69214;BME280;56325;47.030;18.518;2023-03-26T14:13:53;99389.91;;;17.69;34.80
69214;BME280;56325;47.030;18.518;2023-03-26T14:16:34;99396.56;;;17.42;35.10
69214;BME280;56325;47.030;18.518;2023-03-26T14:22:28;99388.75;;;17.59;36.62
69214;BME280;56325;47.030;18.518;2023-03-26T14:25:24;99373.84;;;17.94;35.23
69214;BME280;56325;47.030;18.518;2023-03-26T14:28:18;99371.44;;;18.57;34.38
69214;BME280;56325;47.030;18.518;2023-03-26T14:31:14;99363.34;;;18.85;35.45
69214;BME280;56325;47.030;18.518;2023-03-26T14:34:00;99367.31;;;19.24;33.99
69214;BME280;56325;47.030;18.518;2023-03-26T14:37:04;99355.66;;;19.12;32.76
69214;BME280;56325;47.030;18.518;2023-03-26T14:39:59;99358.00;;;19.21;34.20
69214;BME280;56325;47.030;18.518;2023-03-26T14:42:51;99351.88;;;19.23;31.19
69214;BME280;56325;47.030;18.518;2023-03-26T14:45:48;99337.31;;;19.17;30.71
69214;BME280;56325;47.030;18.518;2023-03-26T14:48:54;99340.94;;;19.25;31.08
69214;BME280;56325;47.030;18.518;2023-03-26T14:51:54;99335.03;;;19.28;32.52
69214;BME280;56325;47.030;18.518;2023-03-26T14:54:33;99341.91;;;19.27;33.29
69214;BME280;56325;47.030;18.518;2023-03-26T14:57:45;99329.22;;;19.06;32.99
69214;BME280;56325;47.030;18.518;2023-03-26T15:04:09;99326.91;;;18.96;33.53
69214;BME280;56325;47.030;18.518;2023-03-26T15:07:15;99311.59;;;18.77;32.65
69214;BME280;56325;47.030;18.518;2023-03-26T15:10:13;99314.19;;;18.75;33.59
69214;BME280;56325;47.030;18.518;2023-03-26T15:16:31;99306.25;;;18.52;34.72
69214;BME280;56325;47.030;18.518;2023-03-26T15:19:41;99289.66;;;18.47;33.50
69214;BME280;56325;47.030;18.518;2023-03-26T15:29:23;99267.59;;;18.49;34.24
69214;BME280;56325;47.030;18.518;2023-03-26T15:35:29;99265.88;;;18.46;34.03
69214;BME280;56325;47.030;18.518;2023-03-26T15:41:24;99270.91;;;18.34;34.13
69214;BME280;56325;47.030;18.518;2023-03-26T15:44:25;99265.56;;;17.83;35.78
69214;BME280;56325;47.030;18.518;2023-03-26T15:47:42;99269.63;;;17.50;36.53
69214;BME280;56325;47.030;18.518;2023-03-26T15:50:30;99264.28;;;17.52;38.19
69214;BME280;56325;47.030;18.518;2023-03-26T15:53:14;99263.06;;;17.66;40.36
69214;BME280;56325;47.030;18.518;2023-03-26T15:56:06;99262.19;;;17.40;42.43
69214;BME280;56325;47.030;18.518;2023-03-26T15:58:50;99249.06;;;17.08;39.09
69214;BME280;56325;47.030;18.518;2023-03-26T16:01:37;99249.75;;;16.95;38.90
69214;BME280;56325;47.030;18.518;2023-03-26T16:04:37;99244.53;;;16.49;40.68
69214;BME280;56325;47.030;18.518;2023-03-26T16:07:33;99238.56;;;16.45;41.62
69214;BME280;56325;47.030;18.518;2023-03-26T16:10:22;99228.41;;;16.47;42.36
69214;BME280;56325;47.030;18.518;2023-03-26T16:13:34;99236.72;;;16.28;42.12
69214;BME280;56325;47.030;18.518;2023-03-26T16:16:20;99223.22;;;16.19;43.54
69214;BME280;56325;47.030;18.518;2023-03-26T16:18:56;99220.00;;;16.15;43.57
69214;BME280;56325;47.030;18.518;2023-03-26T16:21:43;99221.09;;;16.06;44.52
69214;BME280;56325;47.030;18.518;2023-03-26T16:24:28;99213.59;;;16.01;44.73
69214;BME280;56325;47.030;18.518;2023-03-26T16:30:25;99209.59;;;15.72;46.43
69214;BME280;56325;47.030;18.518;2023-03-26T16:33:12;99201.63;;;15.63;46.36
69214;BME280;56325;47.030;18.518;2023-03-26T16:36:13;99198.97;;;15.52;46.39
69214;BME280;56325;47.030;18.518;2023-03-26T16:39:12;99195.44;;;15.52;47.24
69214;BME280;56325;47.030;18.518;2023-03-26T16:42:02;99193.28;;;15.39;48.15
69214;BME280;56325;47.030;18.518;2023-03-26T16:44:47;99191.59;;;15.30;48.58
69214;BME280;56325;47.030;18.518;2023-03-26T16:47:29;99182.47;;;15.35;48.22
69214;BME280;56325;47.030;18.518;2023-03-26T16:50:19;99177.50;;;15.28;48.71
69214;BME280;56325;47.030;18.518;2023-03-26T16:53:07;99183.22;;;15.06;49.65
69214;BME280;56325;47.030;18.518;2023-03-26T16:55:54;99176.72;;;14.98;49.93
69214;BME280;56325;47.030;18.518;2023-03-26T16:58:35;99174.31;;;15.19;49.43
69214;BME280;56325;47.030;18.518;2023-03-26T17:01:18;99178.91;;;15.11;49.15
69214;BME280;56325;47.030;18.518;2023-03-26T17:04:01;99180.03;;;14.96;49.54
69214;BME280;56325;47.030;18.518;2023-03-26T17:07:05;99169.94;;;15.83;73.60
69214;BME280;56325;47.030;18.518;2023-03-26T17:09:54;99159.94;;;16.18;56.92
69214;BME280;56325;47.030;18.518;2023-03-26T17:12:35;99176.25;;;15.59;50.58
69214;BME280;56325;47.030;18.518;2023-03-26T17:15:22;99166.28;;;15.45;50.06